Emmanuel Tomasos — C6SS7 — position and weather

sailwx.info

Track history (hours):
 
Tides and Currents Weather Stations Pressure Air Temp Water Temp Dewpoint Dewpoint Depression Visibility Wind Speed Wind Dir Waves Ship Positions

Emmanuel Tomasos

Last reported at 2014-Oct-02 07:11 UTC. Time now 2014-Oct-02 08:27 UTC.
Position N 40°46' E 028°39'.

Length 181 m; draft 7.1 m.

Type: Tanker. MMSI: 311459000.

Date/timePositionNaut miles runAvg speedWind from/ knotsBaromVisibWave heightAir tempDewpointWater temp
2014-Oct-02 07:11N 40°46' E 028°39'9 4.4
2014-Oct-02 05:16N 40°38' E 028°35'1 0.7
2014-Oct-02 04:15N 40°39' E 028°36'1 0.7
2014-Oct-02 03:31N 40°39' E 028°36'1 0.8
2014-Oct-02 02:25N 40°40' E 028°37'1 0.8
2014-Oct-02 01:32N 40°40' E 028°37'1 0.9
2014-Oct-02 00:31N 40°41' E 028°38'1 1.1
2014-Oct-01 23:31N 40°42' E 028°39'1 1.0
2014-Oct-01 22:29N 40°42' E 028°40'1 1.0
2014-Oct-01 21:33N 40°43' E 028°41'1 1.2
2014-Oct-01 20:33N 40°44' E 028°42'1 1.2
2014-Oct-01 19:33N 40°45' E 028°43'3 3.1
2014-Oct-01 18:31N 40°46' E 028°39'2 0.5
2014-Oct-01 14:22N 40°47' E 028°37'1 0.8
2014-Oct-01 13:33N 40°47' E 028°38'0 0.2
2014-Oct-01 12:32N 40°47' E 028°37'1 0.4
2014-Oct-01 11:09N 40°46' E 028°38'0 0.4
2014-Oct-01 10:06N 40°46' E 028°38'0 0.4
2014-Oct-01 09:33N 40°46' E 028°39'1 0.5
2014-Oct-01 08:28N 40°46' E 028°39'1 0.7
2014-Oct-01 07:33N 40°47' E 028°40'4 1.8
2014-Oct-01 05:33N 40°47' E 028°35'2 0.8
2014-Oct-01 03:27N 40°46' E 028°37'1 1.0
2014-Oct-01 02:22N 40°45' E 028°38'1 1.1
2014-Oct-01 01:30N 40°45' E 028°39'1 1.2
2014-Oct-01 00:31N 40°45' E 028°41'1 1.2
2014-Sep-30 23:31N 40°45' E 028°42'1 1.3
2014-Sep-30 22:32N 40°46' E 028°44'1 1.1
2014-Sep-30 21:30N 40°47' E 028°45'1 1.3
2014-Sep-30 20:32N 40°47' E 028°44'22510.2
2014-Sep-29 22:24N 37°51' E 025°42'1412.7
2014-Sep-29 21:18N 37°38' E 025°49'912.6
2014-Sep-29 20:33N 37°30' E 025°54'1312.6
2014-Sep-29 19:33N 37°20' E 026°06'1313.0
2014-Sep-29 18:33N 37°13' E 026°19'  
Track history (hours):
 
Tides and Currents Weather Stations Pressure Air Temp Water Temp Dewpoint Dewpoint Depression Visibility Wind Speed Wind Dir Waves Ship Positions

Emmanuel Tomasos

Last reported at 2014-Oct-02 07:11 UTC. Time now 2014-Oct-02 08:27 UTC.
Position N 40°46' E 028°39'.

Length 181 m; draft 7.1 m.

Type: Tanker. MMSI: 311459000.

Date/timePositionNaut miles runAvg speedWind from/ knotsBaromVisibWave heightAir tempDewpointWater temp
2014-Oct-02 07:11N 40°46' E 028°39'9 4.4
2014-Oct-02 05:16N 40°38' E 028°35'1 0.7
2014-Oct-02 04:15N 40°39' E 028°36'1 0.7
2014-Oct-02 03:31N 40°39' E 028°36'1 0.8
2014-Oct-02 02:25N 40°40' E 028°37'1 0.8
2014-Oct-02 01:32N 40°40' E 028°37'1 0.9
2014-Oct-02 00:31N 40°41' E 028°38'1 1.1
2014-Oct-01 23:31N 40°42' E 028°39'1 1.0
2014-Oct-01 22:29N 40°42' E 028°40'1 1.0
2014-Oct-01 21:33N 40°43' E 028°41'1 1.2
2014-Oct-01 20:33N 40°44' E 028°42'1 1.2
2014-Oct-01 19:33N 40°45' E 028°43'3 3.1
2014-Oct-01 18:31N 40°46' E 028°39'2 0.5
2014-Oct-01 14:22N 40°47' E 028°37'1 0.8
2014-Oct-01 13:33N 40°47' E 028°38'0 0.2
2014-Oct-01 12:32N 40°47' E 028°37'1 0.4
2014-Oct-01 11:09N 40°46' E 028°38'0 0.4
2014-Oct-01 10:06N 40°46' E 028°38'0 0.4
2014-Oct-01 09:33N 40°46' E 028°39'1 0.5
2014-Oct-01 08:28N 40°46' E 028°39'1 0.7
2014-Oct-01 07:33N 40°47' E 028°40'4 1.8
2014-Oct-01 05:33N 40°47' E 028°35'2 0.8
2014-Oct-01 03:27N 40°46' E 028°37'1 1.0
2014-Oct-01 02:22N 40°45' E 028°38'1 1.1
2014-Oct-01 01:30N 40°45' E 028°39'1 1.2
2014-Oct-01 00:31N 40°45' E 028°41'1 1.2
2014-Sep-30 23:31N 40°45' E 028°42'1 1.3
2014-Sep-30 22:32N 40°46' E 028°44'1 1.1
2014-Sep-30 21:30N 40°47' E 028°45'1 1.3
2014-Sep-30 20:32N 40°47' E 028°44'22510.2
2014-Sep-29 22:24N 37°51' E 025°42'1412.7
2014-Sep-29 21:18N 37°38' E 025°49'912.6
2014-Sep-29 20:33N 37°30' E 025°54'1312.6
2014-Sep-29 19:33N 37°20' E 026°06'1313.0
2014-Sep-29 18:33N 37°13' E 026°19'  

Dump ship's entire track history